Latest Weather Observations for Newcastle Nobbys

IDN60801

Issued at 6:05 pm EST Wednesday 23 April 2014 (issued every 30 minutes, with the page automatically refreshed every 10 minutes)

About weather observations | Map of weather stations | Latest weather observations for NSW | Other Formats
Station Details ID: 061055 Name: NEWCASTLE NOBBYS SIGNAL STATION AWS Lat: -32.92 Lon: 151.80 Height: 33.0 m
Data from the previous 72 hours. | See also: Recent months at Newcastle Nobbys
Date/Time
EST
Temp
°C
App
Temp
°C
Dew
Point
Rel
Hum
%
Delta-T
°C
Wind Press
QNH
hPa
Press
MSL
hPa
Rain
since 9 am
mm
Dir
 
Spd
km/h
Gust
km/h
Spd
kts
Gust
kts
23/06:00pm 21.5 20.2 12.6 57 5.1 E 11 13 6 7 - - 0.0
23/05:30pm 21.5 20.2 12.6 57 5.1 E 11 13 6 7 - - 0.0
23/05:00pm 22.2 20.8 12.2 53 5.7 SE 11 13 6 7 - - 0.0
23/04:30pm 22.7 21.0 12.3 52 5.9 SE 13 13 7 7 - - 0.0
23/04:00pm 23.1 21.1 11.5 48 6.5 SE 13 15 7 8 - - 0.0
23/03:30pm 22.8 20.6 10.9 47 6.6 SE 13 15 7 8 - - 0.0
23/03:00pm 22.3 20.0 11.7 51 5.9 SSE 15 17 8 9 - - 0.0
23/02:30pm 22.3 19.9 11.4 50 6.1 S 15 19 8 10 - - 0.0
23/02:00pm 22.5 19.9 10.6 47 6.6 SSE 15 17 8 9 - - 0.0
23/01:30pm 22.1 19.4 11.8 52 5.8 SSE 17 19 9 10 - - 0.0
23/01:00pm 22.1 19.4 10.3 47 6.4 S 15 17 8 9 - - 0.0
23/12:30pm 21.9 20.2 12.5 55 5.3 S 13 15 7 8 - - 0.0
23/12:00pm 21.9 20.6 12.5 55 5.3 S 11 13 6 7 - - 0.0
23/11:30am 22.7 20.8 12.9 54 5.6 S 15 20 8 11 - - 0.0
23/11:00am 25.1 23.2 9.0 36 8.7 W 9 11 5 6 - - 0.0
23/10:30am 23.9 21.8 9.9 41 7.7 WNW 11 17 6 9 - - 0.0
23/10:00am 22.7 20.8 10.5 46 6.7 WNW 11 17 6 9 - - 0.0
23/09:30am 20.9 18.5 10.1 50 5.8 NW 13 15 7 8 - - 0.0
23/09:00am 19.8 17.4 10.2 54 5.2 NW 13 17 7 9 - - 0.0
23/08:30am 18.9 16.3 9.4 54 5.0 NW 13 15 7 8 - - 0.0
23/08:00am 17.4 14.2 10.1 62 3.9 WNW 17 22 9 12 - - 0.0
23/07:30am 15.8 13.7 9.7 67 3.2 NW 11 15 6 8 - - 0.0
23/07:00am 15.3 14.1 10.3 72 2.6 NW 7 9 4 5 - - 0.0
23/06:30am 15.0 13.8 10.4 74 2.4 NW 7 13 4 7 - - 0.0
23/06:00am 15.2 13.7 10.6 74 2.4 WNW 9 13 5 7 - - 0.0
23/05:30am 15.4 14.4 11.0 75 2.3 WNW 7 9 4 5 - - 0.0
23/05:00am 16.0 15.3 11.4 74 2.5 NW 6 9 3 5 - - 0.0
23/04:30am 16.2 14.9 11.4 73 2.6 NNW 9 11 5 6 - - 0.0
23/04:00am 16.8 16.3 9.5 62 3.8 NW 2 2 1 1 - - 0.0
23/03:30am 17.0 15.5 10.4 65 3.5 NW 9 13 5 7 - - 0.0
23/03:00am 16.5 14.0 11.2 71 2.9 NW 15 17 8 9 - - 0.0
23/02:30am 16.2 13.8 11.4 73 2.6 WNW 15 17 8 9 - - 0.0
23/02:00am 16.7 14.3 11.4 71 2.9 WNW 15 19 8 10 - - 0.0
23/01:30am 16.4 14.6 12.2 76 2.3 WNW 13 15 7 8 - - 0.0
23/01:00am 16.5 15.4 12.1 75 2.4 NW 9 13 5 7 - - 0.0
23/12:30am 16.8 15.9 12.5 76 2.4 NNW 9 13 5 7 - - 0.0
23/12:00am 17.3 16.5 12.8 75 2.5 NNW 9 11 5 6 - - 0.0
 
Date/Time
EST
Temp
°C
App
Temp
°C
Dew
Point
Rel
Hum
%
Delta-T
°C
Wind Press
QNH
hPa
Press
MSL
hPa
Rain
since 9 am
mm
Dir
 
Spd
km/h
Gust
km/h
Spd
kts
Gust
kts
22/11:30pm 18.0 17.5 12.2 69 3.2 NNW 6 7 3 4 - - 0.0
22/11:00pm 18.4 18.0 11.2 63 3.9 N 4 6 2 3 - - 0.0
22/10:30pm 18.8 17.8 12.3 66 3.6 WNW 9 9 5 5 - - 0.0
22/10:00pm 20.0 19.0 11.0 56 4.9 W 7 9 4 5 - - 0.0
22/09:30pm 20.5 19.6 12.5 60 4.5 NW 9 11 5 6 - - 0.0
22/09:00pm 20.4 19.7 12.1 59 4.6 NW 7 9 4 5 - - 0.0
22/08:30pm 20.5 20.0 12.7 61 4.4 N 7 9 4 5 - - 0.0
22/08:00pm 21.0 20.6 12.4 58 4.9 N 6 6 3 3 - - 0.0
22/07:30pm 20.6 20.5 12.1 58 4.8 NNE 4 6 2 3 - - 0.0
22/07:00pm 21.3 21.0 11.3 53 5.5 N 4 9 2 5 - - 0.0
22/06:30pm 22.2 21.0 11.6 51 5.9 NNW 9 11 5 6 - - 0.0
22/06:00pm 22.9 20.7 9.3 42 7.3 NW 11 13 6 7 - - 0.0
22/05:30pm 23.4 20.7 9.0 40 7.7 NNW 13 17 7 9 - - 0.0
22/05:00pm 23.9 21.0 8.3 37 8.3 NW 13 17 7 9 - - 0.0
22/04:30pm 24.6 20.8 7.7 34 8.9 NW 17 24 9 13 - - 0.0
22/04:00pm 25.2 19.3 7.3 32 9.4 NW 28 41 15 22 - - 0.0
22/03:30pm 25.5 18.5 6.7 30 9.8 NW 33 48 18 26 - - 0.0
22/03:00pm 25.9 19.4 8.0 32 9.6 WNW 32 41 17 22 - - 0.0
22/02:39pm 24.6 18.2 6.8 32 9.3 NW 30 50 16 27 - - 0.0
22/02:30pm 24.4 18.7 8.4 36 8.6 NW 28 37 15 20 - - 0.0
22/02:00pm 24.3 17.2 7.9 35 8.7 NW 35 44 19 24 - - 0.0
22/01:30pm 23.9 18.2 8.3 37 8.3 NW 28 37 15 20 - - 0.0
22/01:00pm 23.7 18.6 9.3 40 7.8 NNW 26 35 14 19 - - 0.0
22/12:30pm 23.7 19.5 9.7 41 7.6 NNW 22 32 12 17 - - 0.0
22/12:00pm 23.2 20.3 10.9 46 6.8 NNW 17 24 9 13 - - 0.0
22/11:30am 21.8 19.1 11.8 53 5.6 NNW 17 24 9 13 - - 0.0
22/11:00am 20.8 18.0 11.4 55 5.2 NNW 17 20 9 11 - - 0.0
22/10:30am 20.2 15.7 11.4 57 4.9 NW 26 32 14 17 - - 0.0
22/10:00am 19.3 16.1 11.8 62 4.1 NW 20 26 11 14 - - 0.0
22/09:30am 17.9 14.6 11.5 66 3.5 NW 20 26 11 14 - - 0.0
22/09:00am 16.5 13.1 11.2 71 2.9 NW 20 26 11 14 - - 0.0
22/08:30am 15.5 12.2 11.5 77 2.2 NNW 20 26 11 14 - - 0.0
22/08:00am 14.2 10.2 10.4 78 2.0 NW 22 28 12 15 - - 0.0
22/07:30am 13.5 10.0 10.9 84 1.4 NW 20 26 11 14 - - 0.0
22/07:00am 12.4 9.7 10.5 88 1.0 NW 15 19 8 10 - - 0.0
22/06:30am 12.2 9.6 10.6 90 0.8 NW 15 17 8 9 - - 0.0
22/06:00am 12.9 10.8 11.0 88 1.0 NNW 13 17 7 9 - - 0.0
22/05:30am 13.0 9.8 11.2 89 0.9 NW 19 20 10 11 - - 0.0
22/05:00am 12.6 9.6 10.8 89 0.9 NW 17 22 9 12 - - 0.0
22/04:30am 12.9 10.5 11.3 90 0.8 NW 15 19 8 10 - - 0.0
22/04:00am 13.6 12.5 12.0 90 0.9 NW 9 13 5 7 - - 0.0
22/03:30am 14.2 13.2 12.2 88 1.1 NW 9 11 5 6 - - 0.0
22/03:00am 14.9 13.9 12.2 84 1.5 NW 9 11 5 6 - - 0.0
22/02:30am 15.5 14.8 11.9 79 2.0 NNW 7 9 4 5 - - 0.0
22/02:00am 15.8 15.4 12.4 80 1.9 NW 6 6 3 3 - - 0.0
22/01:30am 15.6 15.0 11.8 78 2.1 SW 6 7 3 4 - - 0.0
22/01:00am 15.7 14.9 11.7 77 2.2 SW 7 9 4 5 - - 0.0
22/12:30am 15.8 14.9 11.4 75 2.4 SW 7 9 4 5 - - 0.0
22/12:00am 15.8 15.0 11.6 76 2.3 SW 7 9 4 5 - - 0.0
 
Date/Time
EST
Temp
°C
App
Temp
°C
Dew
Point
Rel
Hum
%
Delta-T
°C
Wind Press
QNH
hPa
Press
MSL
hPa
Rain
since 9 am
mm
Dir
 
Spd
km/h
Gust
km/h
Spd
kts
Gust
kts
21/11:30pm 15.9 15.1 11.7 76 2.3 SW 7 9 4 5 - - 0.0
21/11:00pm 16.0 15.4 12.2 78 2.1 SW 7 9 4 5 - - 0.0
21/10:30pm 16.3 15.8 12.8 80 1.9 SW 7 9 4 5 - - 0.0
21/10:00pm 17.0 16.7 12.7 76 2.4 SW 6 7 3 4 - - 0.0
21/09:30pm 17.2 16.8 12.3 73 2.7 SW 6 7 3 4 - - 0.0
21/09:00pm 17.4 16.9 12.5 73 2.7 SW 7 7 4 4 - - 0.0
21/08:30pm 18.1 17.9 13.0 72 2.9 SW 6 7 3 4 - - 0.0
21/08:00pm 19.2 19.1 12.0 63 4.0 SW 4 6 2 3 - - 0.0
21/07:30pm 19.8 19.4 11.0 57 4.8 SE 4 6 2 3 - - 0.0
21/07:00pm 19.6 18.8 10.9 57 4.7 SE 6 9 3 5 - - 0.0
21/06:30pm 19.6 18.8 11.1 58 4.7 ESE 6 9 3 5 - - 0.0
21/06:00pm 19.8 18.5 11.3 58 4.7 SSE 9 11 5 6 - - 0.0
21/05:30pm 19.9 18.4 10.6 55 5.0 S 9 13 5 7 - - 0.0
21/05:00pm 20.4 18.9 10.5 53 5.4 SSE 9 11 5 6 - - 0.0
21/04:30pm 20.6 18.9 9.8 50 5.8 SSE 9 13 5 7 - - 0.0
21/04:00pm 21.2 19.3 10.4 50 5.9 SSE 11 15 6 8 - - 0.0
21/03:30pm 21.1 19.2 10.6 51 5.7 SE 11 13 6 7 - - 0.0
21/03:00pm 21.3 19.5 10.8 51 5.8 SE 11 13 6 7 - - 0.0
21/02:30pm 21.1 18.6 11.2 53 5.5 SE 15 17 8 9 - - 0.0
21/02:00pm 21.3 19.6 11.3 53 5.5 SE 11 13 6 7 - - 0.0
21/01:30pm 21.6 20.8 11.0 51 5.9 SW 6 15 3 8 - - 0.0
21/01:00pm 21.1 19.2 10.6 51 5.7 SSE 11 15 6 8 - - 0.0
21/12:30pm 20.9 19.4 10.7 52 5.6 S 9 11 5 6 - - 0.0
21/12:00pm 20.9 19.6 10.1 50 5.8 SE 7 9 4 5 - - 0.0
21/11:30am 21.2 20.1 10.1 49 6.0 S 6 9 3 5 - - 0.0
21/11:00am 21.5 20.3 9.7 47 6.4 WNW 6 7 3 4 - - 0.0
21/10:30am 20.8 19.7 10.0 50 5.8 W 6 13 3 7 - - 0.0
21/10:00am 20.3 19.0 10.1 52 5.5 WNW 7 11 4 6 - - 0.0
21/09:30am 19.6 18.0 10.3 55 5.0 WNW 9 13 5 7 - - 0.0
21/09:00am 18.7 16.6 9.8 56 4.7 W 11 15 6 8 - - 0.0
21/08:30am 17.3 15.0 9.0 58 4.3 W 11 15 6 8 - - 0.0
21/08:00am 16.4 14.6 9.6 64 3.5 W 9 13 5 7 - - 0.0
21/07:30am 15.0 13.1 9.1 68 3.0 W 9 13 5 7 - - 0.0
21/07:00am 14.3 12.8 9.3 72 2.6 WNW 7 9 4 5 - - 0.0
21/06:30am 14.0 12.8 9.6 75 2.3 WNW 6 7 3 4 - - 0.0
21/06:00am 14.2 12.8 9.6 74 2.4 WNW 7 7 4 4 - - 0.0
21/05:30am 14.2 12.7 9.2 72 2.6 WNW 7 7 4 4 - - 0.0
21/05:00am 14.3 12.7 8.9 70 2.7 NW 7 9 4 5 - - 0.0
21/04:30am 14.5 12.9 8.9 69 2.8 WNW 7 9 4 5 - - 0.0
21/04:00am 14.8 12.9 9.0 68 3.0 WNW 9 13 5 7 - - 0.0
21/03:30am 15.1 13.0 8.3 64 3.4 WNW 9 13 5 7 - - 0.0
21/03:00am 15.3 12.9 8.5 64 3.4 WNW 11 15 6 8 - - 0.0
21/02:30am 15.9 13.2 8.9 63 3.6 WNW 13 17 7 9 - - 0.0
21/02:00am 16.0 12.6 9.0 63 3.6 WNW 17 22 9 12 - - 0.0
21/01:30am 16.3 13.2 9.0 62 3.8 WNW 15 17 8 9 - - 0.0
21/01:00am 16.7 13.2 8.7 59 4.1 NW 17 22 9 12 - - 0.0
21/12:30am 17.8 14.6 8.6 55 4.7 NW 15 19 8 10 - - 0.0
21/12:00am 17.7 14.0 9.3 58 4.4 WNW 19 22 10 12 - - 0.0
 
Date/Time
EST
Temp
°C
App
Temp
°C
Dew
Point
Rel
Hum
%
Delta-T
°C
Wind Press
QNH
hPa
Press
MSL
hPa
Rain
since 9 am
mm
Dir
 
Spd
km/h
Gust
km/h
Spd
kts
Gust
kts
20/11:30pm 17.4 15.6 12.1 71 2.9 NW 13 15 7 8 - - 0.0
20/11:00pm 17.3 16.3 15.5 89 1.1 WNW 15 19 8 10 - - 0.0
20/10:30pm 18.2 18.0 15.8 86 1.4 NW 11 17 6 9 - - 0.0
20/10:00pm 19.2 18.5 16.4 84 1.7 N 15 19 8 10 - - 0.0
20/09:30pm 19.9 18.7 17.1 84 1.7 N 19 20 10 11 - - 0.0
20/09:00pm 20.0 18.7 16.8 82 1.9 NNE 19 22 10 12 - - 0.0
20/08:30pm 20.2 18.7 16.4 79 2.3 NNE 19 22 10 12 - - 0.0
20/08:00pm 20.4 19.7 16.4 78 2.4 NNE 15 19 8 10 - - 0.0
20/07:30pm 20.6 19.9 16.4 77 2.5 NNE 15 19 8 10 - - 0.0
20/07:00pm 21.0 20.5 17.0 78 2.4 NE 15 19 8 10 - - 0.0
20/06:30pm 21.1 20.7 16.1 73 3.0 NE 13 17 7 9 - - 0.0

Other Formats:

Comma delimited format used in spreadsheet applications
http://www.bom.gov.au/fwo/IDN60801/IDN60801.94774.axf

JavaScript Object Notation format (JSON) in row-major order
http://www.bom.gov.au/fwo/IDN60801/IDN60801.94774.json